sensor_id;sensor_type;location;lat;lon;timestamp;pressure;altitude;pressure_sealevel;temperature;humidity
70437;BME280;57877;39.750;-104.894;2023-04-25T00:00:46;82931.90;;;18.04;12.96
70437;BME280;57877;39.750;-104.894;2023-04-25T00:03:12;82939.02;;;18.75;12.82
70437;BME280;57877;39.750;-104.894;2023-04-25T00:05:38;82943.27;;;17.29;13.31
70437;BME280;57877;39.750;-104.894;2023-04-25T00:08:04;82945.67;;;16.58;13.79
70437;BME280;57877;39.750;-104.894;2023-04-25T00:10:31;82945.54;;;17.43;13.49
70437;BME280;57877;39.750;-104.894;2023-04-25T00:12:56;82947.99;;;17.15;13.70
70437;BME280;57877;39.750;-104.894;2023-04-25T00:15:22;82953.32;;;17.29;13.78
70437;BME280;57877;39.750;-104.894;2023-04-25T00:17:48;82952.40;;;16.95;13.90
70437;BME280;57877;39.750;-104.894;2023-04-25T00:20:14;82947.13;;;17.72;13.56
70437;BME280;57877;39.750;-104.894;2023-04-25T00:22:40;82950.25;;;16.01;14.87
70437;BME280;57877;39.750;-104.894;2023-04-25T00:25:07;82949.74;;;16.31;15.30
70437;BME280;57877;39.750;-104.894;2023-04-25T00:27:32;82951.35;;;15.81;15.97
70437;BME280;57877;39.750;-104.894;2023-04-25T00:29:58;82951.57;;;16.31;15.02
70437;BME280;57877;39.750;-104.894;2023-04-25T00:32:24;82951.81;;;16.67;14.77
70437;BME280;57877;39.750;-104.894;2023-04-25T00:34:50;82948.42;;;16.22;15.09
70437;BME280;57877;39.750;-104.894;2023-04-25T00:37:16;82946.91;;;17.41;14.70
70437;BME280;57877;39.750;-104.894;2023-04-25T00:39:42;82943.31;;;16.35;14.58
70437;BME280;57877;39.750;-104.894;2023-04-25T00:42:09;82940.61;;;16.86;14.60
70437;BME280;57877;39.750;-104.894;2023-04-25T00:44:35;82939.47;;;17.06;14.56
70437;BME280;57877;39.750;-104.894;2023-04-25T00:47:01;82943.35;;;16.27;14.98
70437;BME280;57877;39.750;-104.894;2023-04-25T00:49:26;82941.99;;;16.90;14.84
70437;BME280;57877;39.750;-104.894;2023-04-25T00:51:52;82942.91;;;16.98;14.55
70437;BME280;57877;39.750;-104.894;2023-04-25T00:54:18;82941.43;;;17.06;14.41
70437;BME280;57877;39.750;-104.894;2023-04-25T00:56:44;82943.62;;;16.69;14.66
70437;BME280;57877;39.750;-104.894;2023-04-25T00:59:10;82943.86;;;16.51;14.58
70437;BME280;57877;39.750;-104.894;2023-04-25T01:01:34;82948.05;;;16.64;14.65
70437;BME280;57877;39.750;-104.894;2023-04-25T01:03:59;82949.51;;;16.08;15.12
70437;BME280;57877;39.750;-104.894;2023-04-25T01:06:24;82950.12;;;16.65;14.87
70437;BME280;57877;39.750;-104.894;2023-04-25T01:08:49;82952.20;;;16.43;14.76
70437;BME280;57877;39.750;-104.894;2023-04-25T01:11:14;82955.58;;;15.50;15.48
70437;BME280;57877;39.750;-104.894;2023-04-25T01:13:40;82953.85;;;15.84;15.25
70437;BME280;57877;39.750;-104.894;2023-04-25T01:16:05;82947.69;;;16.49;14.77
70437;BME280;57877;39.750;-104.894;2023-04-25T01:18:29;82948.79;;;16.81;14.44
70437;BME280;57877;39.750;-104.894;2023-04-25T01:20:55;82942.96;;;16.90;14.20
70437;BME280;57877;39.750;-104.894;2023-04-25T01:23:20;82947.56;;;16.31;14.22
70437;BME280;57877;39.750;-104.894;2023-04-25T01:25:45;82949.51;;;16.31;14.43
70437;BME280;57877;39.750;-104.894;2023-04-25T01:28:10;82947.13;;;16.51;14.04
70437;BME280;57877;39.750;-104.894;2023-04-25T01:30:35;82947.16;;;16.10;14.23
70437;BME280;57877;39.750;-104.894;2023-04-25T01:33:01;82950.04;;;16.78;14.05
70437;BME280;57877;39.750;-104.894;2023-04-25T01:35:25;82948.73;;;17.33;13.78
70437;BME280;57877;39.750;-104.894;2023-04-25T01:37:50;82949.38;;;17.40;13.60
70437;BME280;57877;39.750;-104.894;2023-04-25T01:40:15;82951.78;;;16.95;13.81
70437;BME280;57877;39.750;-104.894;2023-04-25T01:42:43;82952.02;;;16.82;13.78
70437;BME280;57877;39.750;-104.894;2023-04-25T01:45:06;82955.52;;;17.02;13.74
70437;BME280;57877;39.750;-104.894;2023-04-25T01:47:30;82954.37;;;16.78;13.80
70437;BME280;57877;39.750;-104.894;2023-04-25T01:49:55;82952.19;;;16.98;13.57
70437;BME280;57877;39.750;-104.894;2023-04-25T01:52:20;82951.83;;;17.30;13.58
70437;BME280;57877;39.750;-104.894;2023-04-25T01:54:45;82953.22;;;16.86;13.69
70437;BME280;57877;39.750;-104.894;2023-04-25T01:57:10;82957.93;;;16.87;13.67
70437;BME280;57877;39.750;-104.894;2023-04-25T01:59:35;82960.32;;;16.79;13.92
70437;BME280;57877;39.750;-104.894;2023-04-25T02:02:00;82960.13;;;17.28;13.79
70437;BME280;57877;39.750;-104.894;2023-04-25T02:04:25;82961.02;;;17.40;13.74
70437;BME280;57877;39.750;-104.894;2023-04-25T02:06:50;82961.41;;;17.21;13.74
70437;BME280;57877;39.750;-104.894;2023-04-25T02:09:16;82962.19;;;16.38;14.02
70437;BME280;57877;39.750;-104.894;2023-04-25T02:11:41;82963.35;;;17.12;13.93
70437;BME280;57877;39.750;-104.894;2023-04-25T02:14:06;82964.65;;;16.85;14.05
70437;BME280;57877;39.750;-104.894;2023-04-25T02:16:31;82966.01;;;16.65;14.02
70437;BME280;57877;39.750;-104.894;2023-04-25T02:18:57;82966.67;;;17.01;14.04
70437;BME280;57877;39.750;-104.894;2023-04-25T02:21:22;82966.33;;;16.81;14.27
70437;BME280;57877;39.750;-104.894;2023-04-25T02:23:47;82965.94;;;17.11;13.94
70437;BME280;57877;39.750;-104.894;2023-04-25T02:26:12;82968.06;;;16.75;14.00
70437;BME280;57877;39.750;-104.894;2023-04-25T02:28:38;82973.25;;;16.69;13.87
70437;BME280;57877;39.750;-104.894;2023-04-25T02:31:03;82973.49;;;16.90;13.82
70437;BME280;57877;39.750;-104.894;2023-04-25T02:33:28;82974.81;;;17.06;13.84
70437;BME280;57877;39.750;-104.894;2023-04-25T02:35:53;82973.02;;;17.18;13.72
70437;BME280;57877;39.750;-104.894;2023-04-25T02:38:18;82973.20;;;17.29;13.81
70437;BME280;57877;39.750;-104.894;2023-04-25T02:40:43;82973.83;;;16.96;13.68
70437;BME280;57877;39.750;-104.894;2023-04-25T02:43:10;82975.46;;;17.32;13.55
70437;BME280;57877;39.750;-104.894;2023-04-25T02:45:34;82975.41;;;17.21;13.49
70437;BME280;57877;39.750;-104.894;2023-04-25T02:48:01;82975.90;;;17.51;13.49
70437;BME280;57877;39.750;-104.894;2023-04-25T02:50:26;82976.53;;;17.04;13.59
70437;BME280;57877;39.750;-104.894;2023-04-25T02:52:51;82970.55;;;17.17;13.23
70437;BME280;57877;39.750;-104.894;2023-04-25T02:57:41;82977.28;;;16.96;13.34
70437;BME280;57877;39.750;-104.894;2023-04-25T03:00:07;82978.38;;;17.28;13.59
70437;BME280;57877;39.750;-104.894;2023-04-25T03:02:31;82981.60;;;16.88;13.38
70437;BME280;57877;39.750;-104.894;2023-04-25T03:09:46;82993.78;;;17.60;13.45
70437;BME280;57877;39.750;-104.894;2023-04-25T03:12:11;82995.31;;;16.79;13.76
70437;BME280;57877;39.750;-104.894;2023-04-25T03:21:51;82993.59;;;16.99;14.06
70437;BME280;57877;39.750;-104.894;2023-04-25T03:24:16;82991.56;;;16.36;14.47
70437;BME280;57877;39.750;-104.894;2023-04-25T03:26:41;82989.80;;;17.11;14.04
70437;BME280;57877;39.750;-104.894;2023-04-25T03:29:06;82987.65;;;17.31;14.06
70437;BME280;57877;39.750;-104.894;2023-04-25T03:31:31;82985.79;;;17.19;14.29
70437;BME280;57877;39.750;-104.894;2023-04-25T03:33:56;82986.43;;;16.77;14.52
70437;BME280;57877;39.750;-104.894;2023-04-25T03:36:21;82986.06;;;17.17;14.44
70437;BME280;57877;39.750;-104.894;2023-04-25T03:38:47;82985.32;;;17.23;14.36
70437;BME280;57877;39.750;-104.894;2023-04-25T03:41:13;82983.80;;;16.36;14.62
70437;BME280;57877;39.750;-104.894;2023-04-25T03:43:39;82986.14;;;16.54;14.72
70437;BME280;57877;39.750;-104.894;2023-04-25T03:46:05;82989.34;;;16.15;15.28
70437;BME280;57877;39.750;-104.894;2023-04-25T03:48:31;82987.53;;;16.49;15.54
70437;BME280;57877;39.750;-104.894;2023-04-25T03:50:56;82986.87;;;16.42;15.69
70437;BME280;57877;39.750;-104.894;2023-04-25T03:53:22;82986.73;;;16.22;15.82
70437;BME280;57877;39.750;-104.894;2023-04-25T03:55:48;82986.58;;;16.11;16.30
70437;BME280;57877;39.750;-104.894;2023-04-25T03:58:14;82984.72;;;15.93;16.49
70437;BME280;57877;39.750;-104.894;2023-04-25T04:00:40;82984.08;;;15.74;17.07
70437;BME280;57877;39.750;-104.894;2023-04-25T04:03:05;82983.00;;;15.64;17.07
70437;BME280;57877;39.750;-104.894;2023-04-25T04:05:31;82978.53;;;15.48;17.33
70437;BME280;57877;39.750;-104.894;2023-04-25T04:07:56;82977.33;;;15.61;17.12
70437;BME280;57877;39.750;-104.894;2023-04-25T04:10:22;82972.86;;;15.55;17.17
70437;BME280;57877;39.750;-104.894;2023-04-25T04:12:46;82973.76;;;15.94;17.05
70437;BME280;57877;39.750;-104.894;2023-04-25T04:15:12;82980.09;;;16.18;16.88
70437;BME280;57877;39.750;-104.894;2023-04-25T04:17:38;82983.24;;;15.96;17.00
70437;BME280;57877;39.750;-104.894;2023-04-25T04:20:03;82985.04;;;14.85;18.07
70437;BME280;57877;39.750;-104.894;2023-04-25T04:22:28;82989.85;;;13.20;21.06
70437;BME280;57877;39.750;-104.894;2023-04-25T04:24:53;82989.95;;;12.40;22.56
70437;BME280;57877;39.750;-104.894;2023-04-25T04:27:18;82988.13;;;12.74;22.87
70437;BME280;57877;39.750;-104.894;2023-04-25T04:29:43;82987.24;;;12.44;24.00
70437;BME280;57877;39.750;-104.894;2023-04-25T04:32:08;82987.09;;;12.95;23.81
70437;BME280;57877;39.750;-104.894;2023-04-25T04:34:33;82990.63;;;12.75;24.52
70437;BME280;57877;39.750;-104.894;2023-04-25T04:36:58;82995.12;;;11.84;26.05
70437;BME280;57877;39.750;-104.894;2023-04-25T04:39:23;82993.57;;;11.74;26.68
70437;BME280;57877;39.750;-104.894;2023-04-25T04:41:48;82991.22;;;11.24;27.26
70437;BME280;57877;39.750;-104.894;2023-04-25T04:44:13;82985.24;;;11.22;27.59
70437;BME280;57877;39.750;-104.894;2023-04-25T04:46:38;82985.88;;;11.75;26.96
70437;BME280;57877;39.750;-104.894;2023-04-25T04:49:04;82989.89;;;11.93;26.46
70437;BME280;57877;39.750;-104.894;2023-04-25T04:51:28;82995.47;;;11.44;27.62
70437;BME280;57877;39.750;-104.894;2023-04-25T04:53:54;82997.56;;;11.36;27.87
70437;BME280;57877;39.750;-104.894;2023-04-25T04:56:20;83001.19;;;11.08;28.30
70437;BME280;57877;39.750;-104.894;2023-04-25T04:58:45;83002.63;;;11.26;27.94
70437;BME280;57877;39.750;-104.894;2023-04-25T05:01:10;83006.31;;;11.76;27.75
70437;BME280;57877;39.750;-104.894;2023-04-25T05:03:35;83008.66;;;11.55;27.65
70437;BME280;57877;39.750;-104.894;2023-04-25T05:06:00;83002.87;;;10.82;28.85
70437;BME280;57877;39.750;-104.894;2023-04-25T05:08:26;83007.34;;;10.75;28.96
70437;BME280;57877;39.750;-104.894;2023-04-25T05:10:51;83006.01;;;10.94;28.86
70437;BME280;57877;39.750;-104.894;2023-04-25T05:13:16;83008.54;;;11.05;29.33
70437;BME280;57877;39.750;-104.894;2023-04-25T05:15:41;83013.26;;;10.65;29.81
70437;BME280;57877;39.750;-104.894;2023-04-25T05:18:06;83008.94;;;11.10;29.14
70437;BME280;57877;39.750;-104.894;2023-04-25T05:20:31;83010.26;;;10.78;29.20
70437;BME280;57877;39.750;-104.894;2023-04-25T05:22:56;83014.97;;;11.31;29.03
70437;BME280;57877;39.750;-104.894;2023-04-25T05:25:21;83017.46;;;11.14;29.04
70437;BME280;57877;39.750;-104.894;2023-04-25T05:27:46;83021.24;;;11.44;28.76
70437;BME280;57877;39.750;-104.894;2023-04-25T05:30:11;83023.60;;;11.30;28.94
70437;BME280;57877;39.750;-104.894;2023-04-25T05:32:37;83020.87;;;10.43;30.04
70437;BME280;57877;39.750;-104.894;2023-04-25T05:35:02;83023.82;;;11.43;28.92
70437;BME280;57877;39.750;-104.894;2023-04-25T05:37:27;83021.32;;;11.25;29.21
70437;BME280;57877;39.750;-104.894;2023-04-25T05:39:52;83021.39;;;10.67;29.96
70437;BME280;57877;39.750;-104.894;2023-04-25T05:42:17;83018.84;;;11.17;29.47
70437;BME280;57877;39.750;-104.894;2023-04-25T05:44:42;83019.27;;;10.50;30.61
70437;BME280;57877;39.750;-104.894;2023-04-25T05:47:07;83018.75;;;11.33;29.30
70437;BME280;57877;39.750;-104.894;2023-04-25T05:49:33;83019.18;;;11.60;28.74
70437;BME280;57877;39.750;-104.894;2023-04-25T05:51:57;83018.49;;;11.49;29.15
70437;BME280;57877;39.750;-104.894;2023-04-25T05:54:22;83014.82;;;11.67;28.79
70437;BME280;57877;39.750;-104.894;2023-04-25T05:56:47;83007.22;;;11.85;28.56
70437;BME280;57877;39.750;-104.894;2023-04-25T05:59:13;82999.41;;;11.82;28.72
70437;BME280;57877;39.750;-104.894;2023-04-25T06:01:37;82995.88;;;11.53;28.79
70437;BME280;57877;39.750;-104.894;2023-04-25T06:04:03;82991.21;;;12.31;27.99
70437;BME280;57877;39.750;-104.894;2023-04-25T06:06:28;82991.76;;;12.21;27.93
70437;BME280;57877;39.750;-104.894;2023-04-25T06:08:53;82991.94;;;12.67;27.60
70437;BME280;57877;39.750;-104.894;2023-04-25T06:11:18;82989.52;;;11.70;28.30
70437;BME280;57877;39.750;-104.894;2023-04-25T06:13:43;82988.54;;;11.27;29.24
70437;BME280;57877;39.750;-104.894;2023-04-25T06:16:08;82989.08;;;11.47;29.19
70437;BME280;57877;39.750;-104.894;2023-04-25T06:18:33;82992.27;;;11.39;29.27
70437;BME280;57877;39.750;-104.894;2023-04-25T06:20:58;82995.11;;;11.52;29.50
70437;BME280;57877;39.750;-104.894;2023-04-25T06:23:23;83000.63;;;11.39;30.38
70437;BME280;57877;39.750;-104.894;2023-04-25T06:25:48;83007.62;;;11.77;30.03
70437;BME280;57877;39.750;-104.894;2023-04-25T06:28:13;83012.07;;;11.06;30.89
70437;BME280;57877;39.750;-104.894;2023-04-25T06:30:39;83016.87;;;11.24;30.80
70437;BME280;57877;39.750;-104.894;2023-04-25T06:33:03;83016.89;;;10.96;31.52
70437;BME280;57877;39.750;-104.894;2023-04-25T06:35:28;83020.39;;;11.49;30.89
70437;BME280;57877;39.750;-104.894;2023-04-25T06:37:53;83018.94;;;11.05;31.56
70437;BME280;57877;39.750;-104.894;2023-04-25T06:40:19;83022.17;;;11.44;31.11
70437;BME280;57877;39.750;-104.894;2023-04-25T06:42:44;83021.83;;;10.65;32.26
70437;BME280;57877;39.750;-104.894;2023-04-25T06:45:09;83023.94;;;10.26;33.07
70437;BME280;57877;39.750;-104.894;2023-04-25T06:47:34;83018.94;;;10.37;33.05
70437;BME280;57877;39.750;-104.894;2023-04-25T06:49:59;83021.14;;;10.65;32.33
70437;BME280;57877;39.750;-104.894;2023-04-25T06:52:24;83017.93;;;11.02;32.21
70437;BME280;57877;39.750;-104.894;2023-04-25T06:54:49;83014.72;;;11.18;31.74
70437;BME280;57877;39.750;-104.894;2023-04-25T06:57:14;83014.73;;;11.22;31.58
70437;BME280;57877;39.750;-104.894;2023-04-25T06:59:39;83017.05;;;10.63;32.33
70437;BME280;57877;39.750;-104.894;2023-04-25T07:02:04;83016.54;;;10.96;31.61
70437;BME280;57877;39.750;-104.894;2023-04-25T07:04:29;83014.61;;;11.04;31.86
70437;BME280;57877;39.750;-104.894;2023-04-25T07:06:54;83013.77;;;10.77;32.32
70437;BME280;57877;39.750;-104.894;2023-04-25T07:09:19;83014.46;;;10.47;32.60
70437;BME280;57877;39.750;-104.894;2023-04-25T07:11:44;83012.76;;;10.77;32.24
70437;BME280;57877;39.750;-104.894;2023-04-25T07:14:09;83013.82;;;10.78;32.22
70437;BME280;57877;39.750;-104.894;2023-04-25T07:16:34;83015.76;;;10.91;32.45
70437;BME280;57877;39.750;-104.894;2023-04-25T07:18:59;83015.02;;;10.61;32.48
70437;BME280;57877;39.750;-104.894;2023-04-25T07:21:24;83012.08;;;10.80;32.24
70437;BME280;57877;39.750;-104.894;2023-04-25T07:23:50;83012.32;;;10.93;32.04
70437;BME280;57877;39.750;-104.894;2023-04-25T07:26:15;83014.62;;;10.93;32.09
70437;BME280;57877;39.750;-104.894;2023-04-25T07:28:40;83013.13;;;10.93;32.12
70437;BME280;57877;39.750;-104.894;2023-04-25T07:31:05;83016.80;;;11.07;31.89
70437;BME280;57877;39.750;-104.894;2023-04-25T07:33:30;83015.31;;;11.09;31.97
70437;BME280;57877;39.750;-104.894;2023-04-25T07:35:55;83015.68;;;10.78;32.29
70437;BME280;57877;39.750;-104.894;2023-04-25T07:38:20;83020.97;;;11.13;31.85
70437;BME280;57877;39.750;-104.894;2023-04-25T07:40:45;83024.81;;;10.76;32.52
70437;BME280;57877;39.750;-104.894;2023-04-25T07:43:10;83027.97;;;10.30;33.10
70437;BME280;57877;39.750;-104.894;2023-04-25T07:45:35;83032.72;;;10.74;32.52
70437;BME280;57877;39.750;-104.894;2023-04-25T07:48:00;83034.90;;;11.38;31.69
70437;BME280;57877;39.750;-104.894;2023-04-25T07:50:25;83037.11;;;11.52;31.50
70437;BME280;57877;39.750;-104.894;2023-04-25T07:52:50;83036.40;;;11.42;31.33
70437;BME280;57877;39.750;-104.894;2023-04-25T07:55:15;83040.94;;;11.89;30.65
70437;BME280;57877;39.750;-104.894;2023-04-25T07:57:40;83036.18;;;12.13;30.06
70437;BME280;57877;39.750;-104.894;2023-04-25T08:00:07;83044.20;;;12.25;29.87
70437;BME280;57877;39.750;-104.894;2023-04-25T08:02:30;83042.37;;;12.29;29.60
70437;BME280;57877;39.750;-104.894;2023-04-25T08:04:56;83044.00;;;12.85;29.36
70437;BME280;57877;39.750;-104.894;2023-04-25T08:07:21;83045.61;;;12.53;28.76
70437;BME280;57877;39.750;-104.894;2023-04-25T08:09:46;83049.86;;;12.13;29.17
70437;BME280;57877;39.750;-104.894;2023-04-25T08:12:11;83050.98;;;10.82;32.91
70437;BME280;57877;39.750;-104.894;2023-04-25T08:14:36;83050.66;;;9.67;36.54
70437;BME280;57877;39.750;-104.894;2023-04-25T08:17:01;83054.53;;;10.54;36.63
70437;BME280;57877;39.750;-104.894;2023-04-25T08:19:26;83055.76;;;9.15;41.81
70437;BME280;57877;39.750;-104.894;2023-04-25T08:21:51;83051.97;;;9.31;41.43
70437;BME280;57877;39.750;-104.894;2023-04-25T08:24:16;83048.72;;;10.24;41.21
70437;BME280;57877;39.750;-104.894;2023-04-25T08:26:41;83042.55;;;9.79;41.77
70437;BME280;57877;39.750;-104.894;2023-04-25T08:29:06;83041.04;;;9.74;44.19
70437;BME280;57877;39.750;-104.894;2023-04-25T08:31:31;83038.41;;;9.80;44.26
70437;BME280;57877;39.750;-104.894;2023-04-25T08:33:56;83014.19;;;9.80;47.98
70437;BME280;57877;39.750;-104.894;2023-04-25T08:36:22;82981.70;;;8.87;48.96
70437;BME280;57877;39.750;-104.894;2023-04-25T08:38:46;82959.03;;;8.48;47.03
70437;BME280;57877;39.750;-104.894;2023-04-25T08:41:12;82934.94;;;8.17;46.97
70437;BME280;57877;39.750;-104.894;2023-04-25T08:43:38;82919.57;;;7.39;49.74
70437;BME280;57877;39.750;-104.894;2023-04-25T08:46:02;82908.69;;;7.29;51.30
70437;BME280;57877;39.750;-104.894;2023-04-25T08:48:28;82898.95;;;7.82;50.76
70437;BME280;57877;39.750;-104.894;2023-04-25T08:50:54;82893.72;;;7.68;49.86
70437;BME280;57877;39.750;-104.894;2023-04-25T08:53:20;82899.86;;;8.08;48.67
70437;BME280;57877;39.750;-104.894;2023-04-25T08:55:42;82911.40;;;7.82;48.53
70437;BME280;57877;39.750;-104.894;2023-04-25T08:58:08;82915.34;;;7.55;49.35
70437;BME280;57877;39.750;-104.894;2023-04-25T09:00:32;82925.43;;;8.10;48.10
70437;BME280;57877;39.750;-104.894;2023-04-25T09:02:58;82939.74;;;8.01;46.34
70437;BME280;57877;39.750;-104.894;2023-04-25T09:05:22;82946.05;;;8.84;45.21
70437;BME280;57877;39.750;-104.894;2023-04-25T09:07:48;82952.68;;;9.68;42.93
70437;BME280;57877;39.750;-104.894;2023-04-25T09:10:13;82961.33;;;9.46;42.20
70437;BME280;57877;39.750;-104.894;2023-04-25T09:12:38;82964.28;;;9.63;42.40
70437;BME280;57877;39.750;-104.894;2023-04-25T09:15:07;82957.53;;;9.51;42.15
70437;BME280;57877;39.750;-104.894;2023-04-25T09:17:28;82957.94;;;8.81;42.42
70437;BME280;57877;39.750;-104.894;2023-04-25T09:19:53;82955.60;;;9.21;41.33
70437;BME280;57877;39.750;-104.894;2023-04-25T09:22:18;82952.65;;;8.62;42.79
70437;BME280;57877;39.750;-104.894;2023-04-25T09:24:44;82952.66;;;8.26;43.52
70437;BME280;57877;39.750;-104.894;2023-04-25T09:27:10;82959.73;;;8.61;42.74
70437;BME280;57877;39.750;-104.894;2023-04-25T09:29:35;82960.05;;;8.79;42.85
70437;BME280;57877;39.750;-104.894;2023-04-25T09:34:26;82963.18;;;8.95;42.82
70437;BME280;57877;39.750;-104.894;2023-04-25T09:36:48;82960.87;;;9.12;42.10
70437;BME280;57877;39.750;-104.894;2023-04-25T09:39:14;82957.63;;;7.81;45.02
70437;BME280;57877;39.750;-104.894;2023-04-25T09:41:39;82954.22;;;8.19;44.35
70437;BME280;57877;39.750;-104.894;2023-04-25T09:44:04;82950.00;;;8.42;43.70
70437;BME280;57877;39.750;-104.894;2023-04-25T09:46:34;82945.06;;;8.44;43.61
70437;BME280;57877;39.750;-104.894;2023-04-25T09:48:54;82943.88;;;8.15;43.78
70437;BME280;57877;39.750;-104.894;2023-04-25T09:51:19;82947.50;;;8.75;42.82
70437;BME280;57877;39.750;-104.894;2023-04-25T09:53:46;82939.36;;;8.80;42.67
70437;BME280;57877;39.750;-104.894;2023-04-25T09:56:10;82941.88;;;7.95;43.54
70437;BME280;57877;39.750;-104.894;2023-04-25T09:58:35;82946.31;;;7.86;44.54
70437;BME280;57877;39.750;-104.894;2023-04-25T10:01:01;82946.15;;;8.00;44.07
70437;BME280;57877;39.750;-104.894;2023-04-25T10:03:24;82943.63;;;8.51;43.12
70437;BME280;57877;39.750;-104.894;2023-04-25T10:05:50;82947.64;;;8.22;42.97
70437;BME280;57877;39.750;-104.894;2023-04-25T10:08:15;82949.87;;;7.97;43.30
70437;BME280;57877;39.750;-104.894;2023-04-25T10:10:41;82950.78;;;7.61;43.89
70437;BME280;57877;39.750;-104.894;2023-04-25T10:13:05;82951.98;;;8.53;42.45
70437;BME280;57877;39.750;-104.894;2023-04-25T10:15:30;82953.75;;;9.15;41.29
70437;BME280;57877;39.750;-104.894;2023-04-25T10:17:55;82950.78;;;9.24;40.82
70437;BME280;57877;39.750;-104.894;2023-04-25T10:20:20;82957.21;;;8.92;40.28
70437;BME280;57877;39.750;-104.894;2023-04-25T10:22:46;82962.61;;;9.21;40.49
70437;BME280;57877;39.750;-104.894;2023-04-25T10:25:11;82965.14;;;9.59;39.44
70437;BME280;57877;39.750;-104.894;2023-04-25T10:27:36;82967.72;;;9.66;38.95
70437;BME280;57877;39.750;-104.894;2023-04-25T10:30:02;82971.09;;;9.71;38.89
70437;BME280;57877;39.750;-104.894;2023-04-25T10:32:25;82974.90;;;9.58;38.89
70437;BME280;57877;39.750;-104.894;2023-04-25T10:34:50;82972.12;;;9.71;38.57
70437;BME280;57877;39.750;-104.894;2023-04-25T10:37:16;82968.79;;;9.88;38.29
70437;BME280;57877;39.750;-104.894;2023-04-25T10:39:41;82965.18;;;9.76;38.21
70437;BME280;57877;39.750;-104.894;2023-04-25T10:42:06;82962.46;;;10.33;38.11
70437;BME280;57877;39.750;-104.894;2023-04-25T10:44:31;82958.72;;;9.89;38.22
70437;BME280;57877;39.750;-104.894;2023-04-25T10:46:57;82956.51;;;9.79;38.69
70437;BME280;57877;39.750;-104.894;2023-04-25T10:49:29;82951.39;;;9.69;39.27
70437;BME280;57877;39.750;-104.894;2023-04-25T10:51:46;82947.40;;;9.60;39.35
70437;BME280;57877;39.750;-104.894;2023-04-25T10:54:12;82943.97;;;10.00;38.99
70437;BME280;57877;39.750;-104.894;2023-04-25T10:56:38;82941.59;;;10.22;38.96
70437;BME280;57877;39.750;-104.894;2023-04-25T10:59:05;82940.87;;;9.88;38.18
70437;BME280;57877;39.750;-104.894;2023-04-25T11:01:26;82942.33;;;9.56;38.44
70437;BME280;57877;39.750;-104.894;2023-04-25T11:03:57;82939.67;;;9.26;38.59
70437;BME280;57877;39.750;-104.894;2023-04-25T11:06:23;82942.72;;;9.63;38.19
70437;BME280;57877;39.750;-104.894;2023-04-25T11:08:48;82946.12;;;9.65;38.30
70437;BME280;57877;39.750;-104.894;2023-04-25T11:11:07;82947.61;;;9.52;38.36
70437;BME280;57877;39.750;-104.894;2023-04-25T11:13:32;82950.90;;;9.85;38.10
70437;BME280;57877;39.750;-104.894;2023-04-25T11:15:57;82952.94;;;9.82;38.51
70437;BME280;57877;39.750;-104.894;2023-04-25T11:18:25;82957.55;;;9.25;38.73
70437;BME280;57877;39.750;-104.894;2023-04-25T11:20:48;82957.88;;;9.19;39.15
70437;BME280;57877;39.750;-104.894;2023-04-25T11:23:12;82957.69;;;9.05;39.32
70437;BME280;57877;39.750;-104.894;2023-04-25T11:25:38;82958.99;;;9.55;39.18
70437;BME280;57877;39.750;-104.894;2023-04-25T11:28:02;82961.27;;;9.73;39.30
70437;BME280;57877;39.750;-104.894;2023-04-25T11:30:28;82964.59;;;9.39;38.98
70437;BME280;57877;39.750;-104.894;2023-04-25T11:32:53;82967.54;;;9.22;39.36
70437;BME280;57877;39.750;-104.894;2023-04-25T11:35:18;82966.29;;;9.29;39.37
70437;BME280;57877;39.750;-104.894;2023-04-25T11:37:43;82966.95;;;9.41;39.27
70437;BME280;57877;39.750;-104.894;2023-04-25T11:40:09;82971.39;;;9.04;39.55
70437;BME280;57877;39.750;-104.894;2023-04-25T11:42:33;82972.70;;;9.00;39.59
70437;BME280;57877;39.750;-104.894;2023-04-25T11:44:58;82979.21;;;8.96;40.00
70437;BME280;57877;39.750;-104.894;2023-04-25T11:47:28;82982.37;;;8.73;40.02
70437;BME280;57877;39.750;-104.894;2023-04-25T11:49:50;82985.36;;;9.02;40.27
70437;BME280;57877;39.750;-104.894;2023-04-25T11:52:13;82986.86;;;8.88;39.99
70437;BME280;57877;39.750;-104.894;2023-04-25T11:54:38;82985.12;;;8.97;39.97
70437;BME280;57877;39.750;-104.894;2023-04-25T11:57:05;82986.95;;;8.70;40.23
70437;BME280;57877;39.750;-104.894;2023-04-25T11:59:28;82990.00;;;8.84;40.44
70437;BME280;57877;39.750;-104.894;2023-04-25T12:01:54;82990.59;;;8.54;40.44
70437;BME280;57877;39.750;-104.894;2023-04-25T12:04:20;82988.96;;;8.63;40.20
70437;BME280;57877;39.750;-104.894;2023-04-25T12:06:46;82993.04;;;8.64;40.09
70437;BME280;57877;39.750;-104.894;2023-04-25T12:09:10;82990.95;;;8.66;39.60
70437;BME280;57877;39.750;-104.894;2023-04-25T12:11:42;82992.56;;;8.81;39.53
70437;BME280;57877;39.750;-104.894;2023-04-25T12:14:03;82994.80;;;8.67;39.51
70437;BME280;57877;39.750;-104.894;2023-04-25T12:16:25;82991.33;;;8.49;39.60
70437;BME280;57877;39.750;-104.894;2023-04-25T12:18:52;82983.85;;;8.68;39.55
70437;BME280;57877;39.750;-104.894;2023-04-25T12:21:14;82979.38;;;8.53;39.50
70437;BME280;57877;39.750;-104.894;2023-04-25T12:23:39;82972.58;;;8.35;40.06
70437;BME280;57877;39.750;-104.894;2023-04-25T12:26:05;82971.01;;;8.59;39.60
70437;BME280;57877;39.750;-104.894;2023-04-25T12:28:32;82970.11;;;8.52;39.37
70437;BME280;57877;39.750;-104.894;2023-04-25T12:30:56;82973.28;;;8.73;39.07
70437;BME280;57877;39.750;-104.894;2023-04-25T12:33:20;82981.27;;;8.28;39.51
70437;BME280;57877;39.750;-104.894;2023-04-25T12:35:45;82983.77;;;8.45;39.92
70437;BME280;57877;39.750;-104.894;2023-04-25T12:38:10;82981.23;;;8.22;40.32